createdAt,value
2018-12-16T00:00:04.944Z,34.95
2018-12-16T00:02:34.179Z,31.40
2018-12-16T00:05:03.783Z,35.48
2018-12-16T00:07:32.993Z,29.48
2018-12-16T00:10:02.832Z,29.20
2018-12-16T00:12:32.024Z,32.00
2018-12-16T00:15:01.169Z,30.62
2018-12-16T00:17:30.419Z,23.90
2018-12-16T00:19:59.526Z,34.00
2018-12-16T00:22:29.965Z,35.13
2018-12-16T00:24:59.960Z,39.60
2018-12-16T00:27:29.076Z,31.80
2018-12-16T00:29:58.900Z,32.20
2018-12-16T00:32:28.184Z,32.80
2018-12-16T00:34:57.349Z,30.68
2018-12-16T00:37:27.028Z,37.70
2018-12-16T00:39:56.155Z,35.83
2018-12-16T00:42:25.288Z,38.67
2018-12-16T00:44:55.048Z,31.77
2018-12-16T00:47:24.295Z,27.40
2018-12-16T00:49:54.260Z,28.73
2018-12-16T00:52:24.108Z,29.85
2018-12-16T00:54:53.337Z,32.58
2018-12-16T00:57:22.544Z,38.40
2018-12-16T00:59:51.821Z,41.35
2018-12-16T01:05:12.252Z,34.33
2018-12-16T01:07:41.548Z,32.20
2018-12-16T01:10:11.359Z,31.48
2018-12-16T01:12:40.732Z,39.33
2018-12-16T01:15:10.111Z,29.67
2018-12-16T01:17:40.448Z,35.35
2018-12-16T01:20:09.700Z,33.70
2018-12-16T01:22:43.433Z,34.35
2018-12-16T01:25:10.052Z,27.90
2018-12-16T01:27:39.197Z,28.10
2018-12-16T01:30:08.573Z,29.07
2018-12-16T01:32:38.376Z,31.27
2018-12-16T01:35:08.095Z,27.98
2018-12-16T01:37:38.017Z,32.13
2018-12-16T01:40:08.685Z,33.25
2018-12-16T01:42:37.931Z,28.17
2018-12-16T01:45:07.269Z,24.07
2018-12-16T01:47:36.864Z,37.20
2018-12-16T01:50:06.553Z,27.87
2018-12-16T01:52:35.744Z,31.15
2018-12-16T01:55:06.600Z,30.30
2018-12-16T01:57:35.795Z,25.90
2018-12-16T02:00:08.048Z,25.45
2018-12-16T02:02:37.209Z,30.08
2018-12-16T02:05:06.980Z,27.58
2018-12-16T02:07:36.240Z,32.83
2018-12-16T02:10:07.733Z,25.82
2018-12-16T02:12:36.880Z,31.30
2018-12-16T02:15:06.525Z,24.23
2018-12-16T02:17:35.672Z,31.82
2018-12-16T02:20:06.498Z,25.72
2018-12-16T02:22:35.698Z,33.15
2018-12-16T02:25:08.025Z,32.98
2018-12-16T02:27:37.137Z,29.42
2018-12-16T02:32:54.782Z,27.25
2018-12-16T02:35:24.073Z,26.12
2018-12-16T02:37:53.284Z,31.93
2018-12-16T02:40:22.485Z,29.37
2018-12-16T02:42:51.764Z,29.37
2018-12-16T02:45:21.044Z,30.10
2018-12-16T02:47:50.335Z,28.85
2018-12-16T02:50:19.576Z,26.17
2018-12-16T02:52:48.764Z,29.67
2018-12-16T02:55:18.045Z,27.85
2018-12-16T02:57:47.317Z,32.88
2018-12-16T03:00:16.420Z,22.00
2018-12-16T03:02:45.675Z,25.60
2018-12-16T03:05:14.948Z,22.07
2018-12-16T03:07:44.132Z,26.77
2018-12-16T03:10:13.308Z,25.43
2018-12-16T03:12:42.450Z,33.55
2018-12-16T03:15:11.664Z,29.20
2018-12-16T03:17:40.917Z,32.08
2018-12-16T03:20:10.175Z,28.50
2018-12-16T03:22:39.463Z,27.15
2018-12-16T03:25:08.741Z,28.07
2018-12-16T03:27:38.375Z,29.42
2018-12-16T03:30:10.023Z,24.32
2018-12-16T03:32:39.390Z,25.20
2018-12-16T03:35:08.720Z,26.30
2018-12-16T03:37:38.041Z,27.02
2018-12-16T03:40:07.486Z,24.25
2018-12-16T03:42:46.191Z,16.25
2018-12-16T03:45:15.537Z,27.27
2018-12-16T03:47:44.919Z,30.57
2018-12-16T03:50:14.196Z,22.62
2018-12-16T03:52:43.376Z,29.63
2018-12-16T03:55:12.582Z,28.05
2018-12-16T03:57:41.730Z,26.57
2018-12-16T04:00:11.101Z,30.25
2018-12-16T04:02:40.396Z,23.70
2018-12-16T04:05:09.684Z,25.77
2018-12-16T04:07:38.877Z,29.98
2018-12-16T04:10:08.189Z,30.48
2018-12-16T04:12:37.444Z,24.15
2018-12-16T04:15:09.187Z,30.97
2018-12-16T04:17:38.328Z,27.45
2018-12-16T04:20:07.569Z,27.20
2018-12-16T04:22:36.901Z,29.42
2018-12-16T04:25:06.359Z,25.90
2018-12-16T04:27:36.400Z,28.65
2018-12-16T04:30:06.848Z,24.87
2018-12-16T04:32:36.120Z,29.48
2018-12-16T04:35:06.381Z,35.23
2018-12-16T04:37:35.497Z,28.38
2018-12-16T04:40:05.148Z,29.85
2018-12-16T04:42:34.281Z,34.83
2018-12-16T04:45:03.504Z,33.60
2018-12-16T04:47:33.168Z,31.93
2018-12-16T04:50:02.386Z,28.67
2018-12-16T04:52:31.541Z,31.23
2018-12-16T04:55:01.222Z,37.93
2018-12-16T04:57:30.360Z,35.80
2018-12-16T04:59:59.502Z,32.58
2018-12-16T05:02:28.820Z,41.95
2018-12-16T05:04:57.935Z,32.88
2018-12-16T05:07:27.068Z,36.98
2018-12-16T05:12:49.740Z,38.73
2018-12-16T05:15:19.404Z,40.40
2018-12-16T05:17:48.559Z,39.98
2018-12-16T05:20:17.784Z,36.03
2018-12-16T05:22:47.540Z,35.28
2018-12-16T05:25:16.691Z,36.55
2018-12-16T05:27:45.858Z,34.92
2018-12-16T05:30:15.487Z,32.63
2018-12-16T05:32:44.630Z,37.13
2018-12-16T05:35:13.876Z,35.85
2018-12-16T05:37:43.052Z,38.08
2018-12-16T05:40:12.352Z,37.65
2018-12-16T05:42:41.593Z,29.70
2018-12-16T05:45:10.900Z,40.08
2018-12-16T05:47:40.055Z,36.50
2018-12-16T05:50:09.332Z,43.23
2018-12-16T05:52:38.479Z,39.27
2018-12-16T05:55:07.692Z,41.50
2018-12-16T05:57:36.841Z,36.85
2018-12-16T06:00:06.670Z,44.00
2018-12-16T06:02:35.838Z,39.85
2018-12-16T06:05:06.680Z,41.13
2018-12-16T06:07:36.808Z,36.05
2018-12-16T06:10:06.872Z,38.98
2018-12-16T06:12:36.206Z,47.00
2018-12-16T06:15:06.199Z,43.63
2018-12-16T06:17:35.413Z,44.03
2018-12-16T06:20:04.851Z,31.48
2018-12-16T06:22:34.016Z,42.03
2018-12-16T06:25:03.232Z,38.05
2018-12-16T06:27:32.452Z,40.50
2018-12-16T06:30:01.783Z,38.38
2018-12-16T06:32:31.004Z,45.85
2018-12-16T06:35:00.140Z,38.20
2018-12-16T06:37:29.360Z,48.35
2018-12-16T06:39:59.130Z,44.25
2018-12-16T06:42:28.359Z,44.77
2018-12-16T06:44:57.540Z,37.23
2018-12-16T06:47:26.716Z,43.80
2018-12-16T06:49:55.861Z,54.67
2018-12-16T06:52:25.752Z,41.68
2018-12-16T06:54:54.888Z,40.45
2018-12-16T06:57:24.692Z,44.88
2018-12-16T06:59:53.837Z,51.88
2018-12-16T07:02:22.985Z,35.85
2018-12-16T07:04:52.120Z,37.53
2018-12-16T07:07:21.743Z,36.88
2018-12-16T07:09:50.897Z,42.27
2018-12-16T07:12:20.054Z,43.80
2018-12-16T07:14:49.235Z,46.65
2018-12-16T07:17:18.395Z,41.33
2018-12-16T07:19:47.708Z,39.03
2018-12-16T07:22:16.966Z,45.38
2018-12-16T07:24:46.644Z,44.77
2018-12-16T07:27:15.856Z,42.93
2018-12-16T07:29:45.067Z,42.45
2018-12-16T07:32:15.271Z,44.83
2018-12-16T07:34:44.494Z,43.35
2018-12-16T07:37:18.975Z,42.70
2018-12-16T07:39:47.037Z,39.03
2018-12-16T07:42:16.260Z,35.70
2018-12-16T07:44:45.377Z,42.80
2018-12-16T07:47:15.197Z,37.87
2018-12-16T07:49:44.408Z,34.40
2018-12-16T07:52:13.635Z,39.27
2018-12-16T07:54:42.808Z,39.03
2018-12-16T07:57:11.952Z,35.63
2018-12-16T07:59:41.140Z,44.45
2018-12-16T08:02:10.369Z,37.23
2018-12-16T08:04:39.600Z,39.08
2018-12-16T08:07:08.737Z,44.15
2018-12-16T08:09:37.856Z,44.08
2018-12-16T08:12:07.068Z,42.13
2018-12-16T08:14:36.607Z,41.50
2018-12-16T08:17:05.940Z,44.30
2018-12-16T08:19:35.069Z,36.23
2018-12-16T08:22:04.221Z,37.05
2018-12-16T08:24:33.356Z,42.38
2018-12-16T08:27:02.575Z,47.25
2018-12-16T08:29:31.880Z,39.78
2018-12-16T08:32:01.343Z,42.55
2018-12-16T08:34:30.536Z,39.37
2018-12-16T08:36:59.713Z,37.70
2018-12-16T08:39:28.847Z,45.70
2018-12-16T08:41:58.075Z,36.90
2018-12-16T08:44:27.694Z,41.93
2018-12-16T08:46:57.730Z,58.17
2018-12-16T08:49:27.525Z,42.93
2018-12-16T08:51:56.680Z,37.63
2018-12-16T08:54:30.101Z,39.47
2018-12-16T08:56:57.281Z,36.97
2018-12-16T08:59:26.470Z,41.77
2018-12-16T09:01:55.590Z,39.70
2018-12-16T09:04:25.726Z,35.60
2018-12-16T09:06:55.028Z,35.07
2018-12-16T09:09:24.900Z,39.70
2018-12-16T09:11:54.121Z,49.23
2018-12-16T09:14:23.426Z,38.93
2018-12-16T09:16:53.698Z,45.10
2018-12-16T09:19:23.159Z,42.33
2018-12-16T09:21:52.299Z,29.50
2018-12-16T09:24:21.502Z,35.97
2018-12-16T09:26:51.120Z,43.47
2018-12-16T09:29:20.480Z,39.03
2018-12-16T09:31:49.636Z,36.33
2018-12-16T09:34:18.760Z,35.20
2018-12-16T09:36:47.866Z,37.13
2018-12-16T09:39:17.076Z,50.03
2018-12-16T09:41:46.652Z,37.80
2018-12-16T09:44:16.056Z,36.77
2018-12-16T09:46:45.220Z,41.10
2018-12-16T09:49:14.776Z,38.73
2018-12-16T09:51:44.202Z,36.83
2018-12-16T09:54:13.392Z,36.20
2018-12-16T09:56:43.012Z,34.40
2018-12-16T09:59:12.379Z,38.43
2018-12-16T10:01:41.659Z,42.40
2018-12-16T10:04:10.963Z,43.90
2018-12-16T10:06:40.219Z,38.13
2018-12-16T10:09:10.147Z,38.43
2018-12-16T10:11:39.820Z,37.17
2018-12-16T10:14:09.040Z,29.50
2018-12-16T10:16:41.234Z,43.47
2018-12-16T10:19:10.420Z,35.83
2018-12-16T10:21:39.837Z,33.53
2018-12-16T10:24:09.076Z,34.97
2018-12-16T10:26:38.369Z,33.50
2018-12-16T10:29:07.723Z,33.20
2018-12-16T10:31:36.932Z,34.23
2018-12-16T10:34:06.492Z,35.33
2018-12-16T10:36:41.618Z,35.90
2018-12-16T10:39:10.745Z,37.70
2018-12-16T10:41:39.868Z,34.40
2018-12-16T10:44:09.073Z,33.23
2018-12-16T10:46:38.588Z,34.90
2018-12-16T10:49:08.440Z,35.07
2018-12-16T10:51:37.669Z,35.20
2018-12-16T10:54:06.869Z,32.63
2018-12-16T10:56:36.269Z,39.57
2018-12-16T10:59:05.885Z,36.50
2018-12-16T11:01:35.149Z,32.13
2018-12-16T11:04:04.475Z,35.30
2018-12-16T11:06:34.237Z,35.20
2018-12-16T11:09:03.605Z,46.10
2018-12-16T11:11:40.056Z,38.27
2018-12-16T11:17:09.956Z,38.60
2018-12-16T11:19:39.172Z,37.87
2018-12-16T11:22:08.366Z,34.30
2018-12-16T11:24:37.487Z,33.53
2018-12-16T11:27:06.605Z,36.70
2018-12-16T11:29:36.561Z,32.30
2018-12-16T11:32:05.900Z,31.07
2018-12-16T11:34:35.121Z,34.83
2018-12-16T11:37:04.701Z,35.93
2018-12-16T11:39:33.979Z,31.40
2018-12-16T11:42:04.316Z,36.27
2018-12-16T11:44:33.416Z,35.17
2018-12-16T11:47:02.688Z,38.73
2018-12-16T11:49:31.926Z,37.00
2018-12-16T11:52:02.839Z,39.87
2018-12-16T11:54:32.088Z,32.63
2018-12-16T11:57:01.640Z,36.73
2018-12-16T11:59:30.816Z,32.47
2018-12-16T12:02:00.582Z,35.33
2018-12-16T12:04:30.658Z,33.00
2018-12-16T12:07:01.449Z,34.67
2018-12-16T12:09:30.783Z,32.77
2018-12-16T12:12:00.038Z,29.80
2018-12-16T12:14:29.521Z,28.43
2018-12-16T12:16:59.385Z,26.60
2018-12-16T12:19:39.570Z,29.40
2018-12-16T12:22:09.396Z,27.73
2018-12-16T12:24:38.893Z,25.47
2018-12-16T12:27:08.264Z,40.70
2018-12-16T12:29:37.385Z,32.90
2018-12-16T12:32:06.585Z,29.53
2018-12-16T12:34:35.731Z,33.20
2018-12-16T12:37:05.295Z,29.10
2018-12-16T12:39:34.643Z,30.07
2018-12-16T12:42:04.311Z,28.40
2018-12-16T12:44:33.438Z,33.93
2018-12-16T12:47:02.845Z,29.10
2018-12-16T12:49:32.417Z,25.63
2018-12-16T12:52:01.592Z,27.13
2018-12-16T12:54:31.144Z,28.77
2018-12-16T12:57:00.275Z,32.60
2018-12-16T12:59:29.468Z,29.60
2018-12-16T13:01:58.920Z,35.90
2018-12-16T13:04:28.709Z,37.60
2018-12-16T13:06:57.928Z,36.00
2018-12-16T13:09:27.160Z,34.93
2018-12-16T13:11:57.126Z,32.37
2018-12-16T13:14:26.745Z,26.50
2018-12-16T13:16:56.090Z,28.20
2018-12-16T13:19:25.923Z,37.37
2018-12-16T13:21:55.163Z,30.07
2018-12-16T13:24:24.427Z,29.70
2018-12-16T13:26:55.621Z,31.67
2018-12-16T13:29:24.849Z,30.37
2018-12-16T13:31:54.788Z,24.07
2018-12-16T13:34:24.569Z,31.70
2018-12-16T13:36:54.545Z,30.83
2018-12-16T13:39:23.696Z,38.70
2018-12-16T13:41:53.063Z,33.33
2018-12-16T13:44:22.224Z,29.67
2018-12-16T13:46:51.990Z,25.50
2018-12-16T13:49:21.199Z,29.87
2018-12-16T13:51:50.548Z,29.83
2018-12-16T13:54:20.204Z,27.00
2018-12-16T13:56:49.341Z,29.27
2018-12-16T13:59:18.464Z,33.67
2018-12-16T14:01:47.576Z,31.83
2018-12-16T14:04:16.696Z,31.90
2018-12-16T14:06:46.315Z,40.50
2018-12-16T14:09:15.615Z,27.33
2018-12-16T14:11:45.052Z,26.73
2018-12-16T14:14:14.215Z,31.00
2018-12-16T14:16:43.680Z,32.00
2018-12-16T14:19:13.630Z,29.60
2018-12-16T14:21:42.801Z,28.03
2018-12-16T14:24:18.560Z,30.40
2018-12-16T14:26:48.336Z,29.40
2018-12-16T14:29:17.592Z,26.63
2018-12-16T14:31:46.752Z,27.00
2018-12-16T14:34:16.448Z,27.63
2018-12-16T14:36:45.726Z,29.40
2018-12-16T14:39:15.511Z,29.30
2018-12-16T14:41:44.689Z,26.47
2018-12-16T14:44:14.187Z,29.17
2018-12-16T14:46:43.511Z,29.40
2018-12-16T14:49:12.771Z,30.30
2018-12-16T14:51:42.013Z,25.90
2018-12-16T14:54:11.893Z,31.77
2018-12-16T14:56:42.588Z,25.80
2018-12-16T14:59:11.706Z,28.07
2018-12-16T15:01:41.543Z,28.33
2018-12-16T15:04:10.800Z,25.80
2018-12-16T15:06:40.369Z,27.97
2018-12-16T15:09:10.437Z,28.43
2018-12-16T15:11:39.713Z,31.50
2018-12-16T15:14:10.493Z,28.03
2018-12-16T15:16:41.078Z,29.27
2018-12-16T15:19:10.245Z,33.73
2018-12-16T15:21:40.161Z,30.93
2018-12-16T15:24:10.272Z,41.23
2018-12-16T15:26:39.696Z,37.00
2018-12-16T15:29:08.833Z,45.37
2018-12-16T15:31:38.084Z,39.83
2018-12-16T15:34:08.032Z,40.80
2018-12-16T15:36:37.297Z,42.33
2018-12-16T15:39:08.216Z,39.03
2018-12-16T15:41:37.359Z,34.33
2018-12-16T15:44:06.671Z,38.20
2018-12-16T15:46:35.969Z,40.60
2018-12-16T15:49:05.404Z,34.73
2018-12-16T15:51:34.707Z,47.87
2018-12-16T15:54:03.913Z,46.70
2018-12-16T15:56:33.144Z,42.80
2018-12-16T15:59:02.255Z,40.70
2018-12-16T16:01:31.481Z,39.23
2018-12-16T16:04:01.288Z,42.83
2018-12-16T16:06:30.665Z,36.97
2018-12-16T16:09:00.253Z,34.37
2018-12-16T16:11:30.256Z,32.80
2018-12-16T16:13:59.372Z,29.67
2018-12-16T16:16:28.569Z,39.87
2018-12-16T16:18:57.782Z,43.57
2018-12-16T16:21:26.911Z,57.83
2018-12-16T16:23:56.271Z,35.03
2018-12-16T16:26:25.474Z,37.40
2018-12-16T16:28:54.612Z,42.13
2018-12-16T16:31:24.592Z,44.63
2018-12-16T16:33:54.389Z,46.50
2018-12-16T16:36:23.516Z,41.00
2018-12-16T16:38:52.818Z,46.57
2018-12-16T16:41:22.064Z,38.20
2018-12-16T16:43:51.741Z,48.37
2018-12-16T16:46:20.865Z,53.90
2018-12-16T16:48:50.128Z,78.53
2018-12-16T16:51:19.356Z,71.90
2018-12-16T16:53:48.671Z,67.30
2018-12-16T16:56:22.986Z,61.40
2018-12-16T16:58:49.191Z,58.93
2018-12-16T17:01:19.462Z,47.90
2018-12-16T17:03:49.410Z,51.10
2018-12-16T17:06:19.088Z,43.20
2018-12-16T17:08:48.427Z,45.47
2018-12-16T17:11:18.120Z,51.93
2018-12-16T17:13:48.027Z,45.20
2018-12-16T17:16:17.382Z,40.63
2018-12-16T17:18:48.729Z,49.20
2018-12-16T17:21:18.808Z,38.37
2018-12-16T17:23:47.988Z,39.97
2018-12-16T17:26:17.340Z,51.80
2018-12-16T17:28:47.256Z,51.03
2018-12-16T17:31:16.664Z,47.40
2018-12-16T17:33:45.840Z,46.00
2018-12-16T17:36:15.076Z,46.03
2018-12-16T17:38:44.186Z,41.33
2018-12-16T17:41:13.934Z,50.33
2018-12-16T17:43:47.911Z,39.70
2018-12-16T17:46:17.215Z,42.93
2018-12-16T17:48:47.083Z,44.40
2018-12-16T17:51:17.080Z,45.00
2018-12-16T17:53:47.099Z,47.17
2018-12-16T17:56:16.648Z,43.33
2018-12-16T17:58:45.822Z,48.07
2018-12-16T18:01:14.972Z,59.40
2018-12-16T18:03:44.151Z,44.50
2018-12-16T18:06:13.240Z,51.73
2018-12-16T18:08:42.468Z,47.57
2018-12-16T18:11:12.254Z,54.67
2018-12-16T18:13:41.479Z,56.20
2018-12-16T18:16:10.689Z,51.47
2018-12-16T18:18:40.272Z,54.33
2018-12-16T18:21:09.432Z,62.73
2018-12-16T18:23:38.596Z,44.60
2018-12-16T18:26:07.904Z,54.03
2018-12-16T18:28:42.960Z,63.73
2018-12-16T18:31:12.116Z,54.83
2018-12-16T18:33:41.249Z,64.30
2018-12-16T18:36:10.658Z,59.50
2018-12-16T18:38:39.896Z,52.07
2018-12-16T18:41:09.736Z,55.10
2018-12-16T18:43:39.631Z,47.10
2018-12-16T18:46:09.474Z,43.47
2018-12-16T18:48:38.693Z,55.23
2018-12-16T18:51:08.648Z,41.37
2018-12-16T18:53:37.772Z,37.90
2018-12-16T18:56:08.164Z,37.07
2018-12-16T18:58:37.464Z,38.63
2018-12-16T19:01:07.513Z,38.70
2018-12-16T19:03:37.309Z,53.73
2018-12-16T19:06:07.672Z,47.17
2018-12-16T19:08:37.140Z,49.70
2018-12-16T19:11:07.104Z,43.10
2018-12-16T19:13:36.238Z,45.70
2018-12-16T19:16:05.560Z,42.23
2018-12-16T19:18:35.761Z,45.37
2018-12-16T19:21:05.089Z,37.70
2018-12-16T19:23:35.900Z,41.23
2018-12-16T19:26:06.088Z,35.63
2018-12-16T19:28:35.321Z,38.90
2018-12-16T19:31:04.681Z,38.33
2018-12-16T19:33:33.991Z,39.43
2018-12-16T19:36:03.112Z,38.70
2018-12-16T19:38:32.731Z,42.00
2018-12-16T19:41:02.128Z,44.10
2018-12-16T19:43:31.385Z,42.00
2018-12-16T19:46:00.524Z,40.97
2018-12-16T19:48:29.920Z,35.60
2018-12-16T19:50:59.433Z,43.83
2018-12-16T19:53:28.592Z,38.60
2018-12-16T19:55:57.712Z,41.87
2018-12-16T19:58:27.303Z,43.97
2018-12-16T20:00:56.425Z,35.80
2018-12-16T20:03:25.651Z,48.50
2018-12-16T20:06:00.000Z,35.27
2018-12-16T20:08:29.133Z,31.83
2018-12-16T20:10:58.624Z,32.33
2018-12-16T20:13:28.640Z,37.10
2018-12-16T20:16:01.507Z,35.47
2018-12-16T20:18:29.556Z,37.33
2018-12-16T20:20:58.766Z,37.40
2018-12-16T20:23:28.012Z,36.00
2018-12-16T20:25:57.227Z,35.33
2018-12-16T20:28:26.344Z,34.83
2018-12-16T20:30:55.509Z,34.23
2018-12-16T20:33:24.624Z,33.17
2018-12-16T20:35:53.795Z,34.27
2018-12-16T20:38:25.056Z,34.97
2018-12-16T20:40:55.016Z,29.93
2018-12-16T20:43:24.342Z,39.73
2018-12-16T20:45:54.011Z,39.93
2018-12-16T20:48:23.128Z,37.97
2018-12-16T20:50:52.326Z,38.70
2018-12-16T20:53:21.632Z,36.03
2018-12-16T20:55:51.529Z,41.33
2018-12-16T20:58:20.768Z,40.90
2018-12-16T21:00:49.964Z,37.77
2018-12-16T21:03:19.487Z,42.33
2018-12-16T21:05:48.588Z,43.17
2018-12-16T21:08:17.717Z,52.20
2018-12-16T21:10:46.928Z,46.43
2018-12-16T21:13:21.444Z,57.20
2018-12-16T21:15:56.476Z,49.43
2018-12-16T21:18:29.173Z,45.70
2018-12-16T21:20:58.317Z,54.43
2018-12-16T21:23:28.292Z,48.43
2018-12-16T21:25:57.426Z,47.13
2018-12-16T21:28:26.972Z,53.27
2018-12-16T21:30:56.097Z,54.67
2018-12-16T21:33:25.264Z,51.00
2018-12-16T21:35:54.469Z,44.07
2018-12-16T21:38:23.619Z,44.03
2018-12-16T21:40:52.828Z,49.70
2018-12-16T21:43:23.308Z,52.00
2018-12-16T21:45:52.514Z,45.67
2018-12-16T21:48:21.728Z,46.17
2018-12-16T21:50:51.460Z,50.10
2018-12-16T21:53:20.620Z,44.50
2018-12-16T21:55:50.558Z,43.90
2018-12-16T21:58:19.751Z,43.43
2018-12-16T22:00:49.571Z,53.67
2018-12-16T22:03:19.644Z,44.10
2018-12-16T22:05:50.122Z,50.83
2018-12-16T22:08:19.765Z,52.13
2018-12-16T22:10:48.999Z,50.83
2018-12-16T22:13:18.127Z,47.13
2018-12-16T22:15:47.495Z,39.53
2018-12-16T22:18:16.623Z,51.53
2018-12-16T22:20:46.330Z,56.43
2018-12-16T22:23:15.491Z,53.37
2018-12-16T22:25:44.650Z,38.20
2018-12-16T22:28:13.813Z,35.73
2018-12-16T22:33:20.905Z,44.50
2018-12-16T22:35:50.592Z,37.67
2018-12-16T22:38:19.809Z,39.60
2018-12-16T22:40:49.565Z,37.60
2018-12-16T22:43:18.765Z,41.00
2018-12-16T22:45:47.881Z,41.80
2018-12-16T22:48:17.152Z,41.17
2018-12-16T22:50:46.380Z,41.60
2018-12-16T22:53:15.761Z,33.37
2018-12-16T22:55:44.900Z,42.63
2018-12-16T22:58:14.102Z,47.33
2018-12-16T23:00:50.016Z,35.47
2018-12-16T23:03:19.590Z,34.80
2018-12-16T23:05:48.751Z,44.23
2018-12-16T23:08:18.113Z,36.80
2018-12-16T23:10:47.832Z,39.27
2018-12-16T23:13:17.148Z,40.27
2018-12-16T23:15:46.356Z,43.43
2018-12-16T23:18:15.592Z,34.93
2018-12-16T23:20:44.973Z,33.80
2018-12-16T23:23:14.176Z,37.37
2018-12-16T23:25:43.308Z,30.00
2018-12-16T23:28:13.293Z,41.23
2018-12-16T23:30:42.968Z,34.37
2018-12-16T23:33:12.269Z,39.07
2018-12-16T23:35:41.417Z,55.00
2018-12-16T23:38:11.236Z,57.40
2018-12-16T23:40:41.140Z,35.73
2018-12-16T23:43:10.270Z,89.27
2018-12-16T23:45:39.941Z,55.07
2018-12-16T23:48:09.265Z,47.53
2018-12-16T23:50:38.896Z,39.13
2018-12-16T23:53:08.112Z,36.90
2018-12-16T23:55:37.245Z,43.27
2018-12-16T23:58:06.791Z,41.47
